createdAt,value
2023-01-22T00:01:21.330Z,2.17
2023-01-22T00:03:50.345Z,2.72
2023-01-22T00:06:18.996Z,2.28
2023-01-22T00:08:48.544Z,2.47
2023-01-22T00:11:19.612Z,2.70
2023-01-22T00:13:48.560Z,2.50
2023-01-22T00:16:18.583Z,2.10
2023-01-22T00:18:47.173Z,2.60
2023-01-22T00:21:15.722Z,2.55
2023-01-22T00:23:44.367Z,2.80
2023-01-22T00:26:15.555Z,2.42
2023-01-22T00:28:48.000Z,2.80
2023-01-22T00:31:17.609Z,3.83
2023-01-22T00:33:47.768Z,2.85
2023-01-22T00:36:18.792Z,2.58
2023-01-22T00:38:50.034Z,3.03
2023-01-22T00:41:19.923Z,2.97
2023-01-22T00:43:52.788Z,2.97
2023-01-22T00:46:21.993Z,2.90
2023-01-22T00:48:51.218Z,2.70
2023-01-22T00:51:20.317Z,2.67
2023-01-22T00:53:48.979Z,2.72
2023-01-22T00:56:18.063Z,2.63
2023-01-22T00:58:46.912Z,2.92
2023-01-22T01:01:18.002Z,3.20
2023-01-22T01:03:46.599Z,2.95
2023-01-22T01:06:17.394Z,3.55
2023-01-22T01:08:48.561Z,2.88
2023-01-22T01:13:46.683Z,3.10
2023-01-22T01:16:18.935Z,2.90
2023-01-22T01:18:48.333Z,2.63
2023-01-22T01:21:17.285Z,2.20
2023-01-22T01:23:46.508Z,2.63
2023-01-22T01:26:17.519Z,3.08
2023-01-22T01:28:46.625Z,2.45
2023-01-22T01:31:17.876Z,2.63
2023-01-22T01:33:47.138Z,2.85
2023-01-22T01:36:21.256Z,3.00
2023-01-22T01:38:56.321Z,2.50
2023-01-22T01:41:27.450Z,2.25
2023-01-22T01:44:10.141Z,2.72
2023-01-22T01:46:44.283Z,2.28
2023-01-22T01:49:20.881Z,2.38
2023-01-22T01:51:50.429Z,2.15
2023-01-22T01:54:19.967Z,2.50
2023-01-22T01:56:52.077Z,2.08
2023-01-22T01:59:22.630Z,2.70
2023-01-22T02:01:55.673Z,2.67
2023-01-22T02:04:25.362Z,2.92
2023-01-22T02:06:55.644Z,2.45
2023-01-22T02:09:24.835Z,2.43
2023-01-22T02:11:54.451Z,2.55
2023-01-22T02:14:27.969Z,2.88
2023-01-22T02:17:09.126Z,3.15
2023-01-22T02:19:37.793Z,2.80
2023-01-22T02:22:13.644Z,3.20
2023-01-22T02:24:42.352Z,2.67
2023-01-22T02:27:11.539Z,3.13
2023-01-22T02:29:40.593Z,3.08
2023-01-22T02:32:11.835Z,3.00
2023-01-22T02:34:40.392Z,2.95
2023-01-22T02:37:09.081Z,2.70
2023-01-22T02:39:39.153Z,3.15
2023-01-22T02:42:10.091Z,3.50
2023-01-22T02:44:39.871Z,2.83
2023-01-22T02:47:08.638Z,2.90
2023-01-22T02:49:37.224Z,3.60
2023-01-22T02:52:06.511Z,3.45
2023-01-22T02:54:36.125Z,3.40
2023-01-22T02:57:06.155Z,3.35
2023-01-22T02:59:36.056Z,3.20
2023-01-22T03:02:05.009Z,3.47
2023-01-22T03:04:35.135Z,3.40
2023-01-22T03:07:04.360Z,3.85
2023-01-22T03:09:33.677Z,3.42
2023-01-22T03:12:03.297Z,3.83
2023-01-22T03:14:53.374Z,3.22
2023-01-22T03:17:39.502Z,4.00
2023-01-22T03:20:26.950Z,3.30
2023-01-22T03:22:55.874Z,3.42
2023-01-22T03:25:24.437Z,3.30
2023-01-22T03:28:18.810Z,3.58
2023-01-22T03:30:56.660Z,4.00
2023-01-22T03:33:25.713Z,3.17
2023-01-22T03:35:54.505Z,4.13
2023-01-22T03:38:23.071Z,3.80
2023-01-22T03:40:51.648Z,3.28
2023-01-22T03:43:22.480Z,3.35
2023-01-22T03:45:51.032Z,3.72
2023-01-22T03:48:23.038Z,3.40
2023-01-22T03:50:51.691Z,3.97
2023-01-22T03:53:20.237Z,3.75
2023-01-22T03:55:58.991Z,3.25
2023-01-22T03:58:28.161Z,3.67
2023-01-22T04:00:57.956Z,3.28
2023-01-22T04:03:29.654Z,3.58
2023-01-22T04:06:00.505Z,4.38
2023-01-22T04:08:31.272Z,4.15
2023-01-22T04:11:01.913Z,4.03
2023-01-22T04:13:32.645Z,4.00
2023-01-22T04:16:02.168Z,4.63
2023-01-22T04:18:50.773Z,3.78
2023-01-22T04:21:39.671Z,3.47
2023-01-22T04:24:11.332Z,3.60
2023-01-22T04:26:40.060Z,3.65
2023-01-22T04:29:10.028Z,3.53
2023-01-22T04:34:08.555Z,3.40
2023-01-22T04:36:44.353Z,3.75
2023-01-22T04:39:12.951Z,3.72
2023-01-22T04:41:41.501Z,3.83
2023-01-22T04:44:10.333Z,3.90
2023-01-22T04:46:38.973Z,4.40
2023-01-22T04:49:09.068Z,3.70
2023-01-22T04:51:37.937Z,4.45
2023-01-22T04:54:06.871Z,3.83
2023-01-22T04:56:35.452Z,3.97
2023-01-22T04:59:04.801Z,3.42
2023-01-22T05:01:33.522Z,3.55
2023-01-22T05:04:02.911Z,3.78
2023-01-22T05:06:35.928Z,3.95
2023-01-22T05:09:05.593Z,3.50
2023-01-22T05:11:47.342Z,3.90
2023-01-22T05:14:16.147Z,3.67
2023-01-22T05:16:47.161Z,3.83
2023-01-22T05:19:17.015Z,3.92
2023-01-22T05:21:47.669Z,3.90
2023-01-22T05:24:19.179Z,3.85
2023-01-22T05:26:48.082Z,3.57
2023-01-22T05:29:42.665Z,3.70
2023-01-22T05:32:32.702Z,3.85
2023-01-22T05:35:02.640Z,3.60
2023-01-22T05:37:34.512Z,3.90
2023-01-22T05:40:05.460Z,4.50
2023-01-22T05:42:36.351Z,3.50
2023-01-22T05:45:07.711Z,3.15
2023-01-22T05:47:42.022Z,3.80
2023-01-22T05:50:30.499Z,3.65
2023-01-22T05:53:07.771Z,4.00
2023-01-22T05:55:36.463Z,3.78
2023-01-22T06:00:36.606Z,3.75
2023-01-22T06:03:08.597Z,4.43
2023-01-22T06:05:46.174Z,3.80
2023-01-22T06:08:16.185Z,3.90
2023-01-22T06:10:51.663Z,3.85
2023-01-22T06:13:20.989Z,3.65
2023-01-22T06:15:54.569Z,3.70
2023-01-22T06:18:43.054Z,4.28
2023-01-22T06:21:14.063Z,4.25
2023-01-22T06:23:44.212Z,4.00
2023-01-22T06:26:13.288Z,4.38
2023-01-22T06:28:43.848Z,3.97
2023-01-22T06:31:13.115Z,4.13
2023-01-22T06:33:42.503Z,4.80
2023-01-22T06:36:11.347Z,4.35
2023-01-22T06:38:39.882Z,3.63
2023-01-22T06:41:12.525Z,3.80
2023-01-22T06:43:41.231Z,3.92
2023-01-22T06:46:10.448Z,4.05
2023-01-22T06:49:02.770Z,3.22
2023-01-22T06:51:32.076Z,4.35
2023-01-22T06:54:01.054Z,3.80
2023-01-22T06:56:31.437Z,3.75
2023-01-22T06:59:02.277Z,3.40
2023-01-22T07:01:30.825Z,3.97
2023-01-22T07:03:59.466Z,3.70
2023-01-22T07:06:28.061Z,3.90
2023-01-22T07:08:57.345Z,3.78
2023-01-22T07:11:25.933Z,3.65
2023-01-22T07:13:55.902Z,3.55
2023-01-22T07:16:24.463Z,3.92
2023-01-22T07:18:53.074Z,4.13
2023-01-22T07:21:21.618Z,4.20
2023-01-22T07:23:50.236Z,3.63
2023-01-22T07:26:18.743Z,5.20
2023-01-22T07:28:47.381Z,4.55
2023-01-22T07:31:17.389Z,4.72
2023-01-22T07:33:45.977Z,5.07
2023-01-22T07:36:14.587Z,5.35
2023-01-22T07:38:43.287Z,7.60
2023-01-22T07:41:25.231Z,7.28
2023-01-22T07:43:57.108Z,6.00
2023-01-22T07:46:27.256Z,6.15
2023-01-22T07:48:56.031Z,7.07
2023-01-22T07:51:24.698Z,7.03
2023-01-22T07:53:53.476Z,7.75
2023-01-22T07:56:22.059Z,6.57
2023-01-22T07:58:50.725Z,6.85
2023-01-22T08:01:19.218Z,5.13
2023-01-22T08:03:49.252Z,6.60
2023-01-22T08:06:21.591Z,16.13
2023-01-22T08:08:50.353Z,8.30
2023-01-22T08:11:19.017Z,8.93
2023-01-22T08:13:47.630Z,8.02
2023-01-22T08:16:16.296Z,8.65
2023-01-22T08:18:44.978Z,9.50
2023-01-22T08:21:15.048Z,9.93
2023-01-22T08:23:46.624Z,12.88
2023-01-22T08:26:16.813Z,10.43
2023-01-22T08:28:45.489Z,15.10
2023-01-22T08:31:26.861Z,11.18
2023-01-22T08:33:55.840Z,10.57
2023-01-22T08:36:25.984Z,10.15
2023-01-22T08:38:54.595Z,7.75
2023-01-22T08:41:23.512Z,12.77
2023-01-22T08:43:53.578Z,6.03
2023-01-22T08:46:22.252Z,8.32
2023-01-22T08:48:50.971Z,6.25
2023-01-22T08:51:19.642Z,4.88
2023-01-22T08:53:49.709Z,7.30
2023-01-22T08:56:18.367Z,6.70
2023-01-22T08:58:50.185Z,6.43
2023-01-22T09:01:19.800Z,5.55
2023-01-22T09:03:49.470Z,3.97
2023-01-22T09:06:18.331Z,3.95
2023-01-22T09:08:48.351Z,4.70
2023-01-22T09:11:16.876Z,4.88
2023-01-22T09:13:45.645Z,4.68
2023-01-22T09:16:14.224Z,4.80
2023-01-22T09:18:43.219Z,4.60
2023-01-22T09:21:11.771Z,5.45
2023-01-22T09:23:40.359Z,5.20
2023-01-22T09:26:10.402Z,4.68
2023-01-22T09:28:39.138Z,5.38
2023-01-22T09:31:07.709Z,4.70
2023-01-22T09:33:36.351Z,6.00
2023-01-22T09:36:09.874Z,5.75
2023-01-22T09:38:38.551Z,5.82
2023-01-22T09:41:17.812Z,5.50
2023-01-22T09:43:51.938Z,5.80
2023-01-22T09:46:26.490Z,4.82
2023-01-22T09:48:58.737Z,4.80
2023-01-22T09:51:27.514Z,5.05
2023-01-22T09:53:59.622Z,5.50
2023-01-22T09:56:37.394Z,6.65
2023-01-22T09:59:08.992Z,5.70
2023-01-22T10:01:38.492Z,7.18
2023-01-22T10:04:20.217Z,4.05
2023-01-22T10:06:50.387Z,4.68
2023-01-22T10:09:21.893Z,5.65
2023-01-22T10:11:54.410Z,4.72
2023-01-22T10:14:27.036Z,5.75
2023-01-22T10:16:56.958Z,4.97
2023-01-22T10:19:29.181Z,5.75
2023-01-22T10:22:01.919Z,4.65
2023-01-22T10:24:30.515Z,5.38
2023-01-22T10:27:12.716Z,4.20
2023-01-22T10:29:41.474Z,4.47
2023-01-22T10:32:21.724Z,5.43
2023-01-22T10:35:01.366Z,4.15
2023-01-22T10:37:30.751Z,3.85
2023-01-22T10:40:01.167Z,3.72
2023-01-22T10:42:31.399Z,4.97
2023-01-22T10:45:16.392Z,4.40
2023-01-22T10:47:44.969Z,4.10
2023-01-22T10:50:16.733Z,5.03
2023-01-22T10:52:50.498Z,4.68
2023-01-22T10:55:24.183Z,5.20
2023-01-22T10:58:02.947Z,6.15
2023-01-22T11:00:50.322Z,5.27
2023-01-22T11:03:23.650Z,5.03
2023-01-22T11:05:58.016Z,6.18
2023-01-22T11:08:31.000Z,9.25
2023-01-22T11:11:03.543Z,63.20
2023-01-22T11:13:42.376Z,32.83
2023-01-22T11:16:16.423Z,26.13
2023-01-22T11:18:49.298Z,26.77
2023-01-22T11:21:20.855Z,7.72
2023-01-22T11:23:55.304Z,16.63
2023-01-22T11:26:33.800Z,8.23
2023-01-22T11:29:13.532Z,5.43
2023-01-22T11:31:55.697Z,4.72
2023-01-22T11:34:56.001Z,4.07
2023-01-22T11:37:45.829Z,4.15
2023-01-22T11:43:22.321Z,3.92
2023-01-22T11:46:10.775Z,4.57
2023-01-22T11:48:49.258Z,3.53
2023-01-22T11:51:25.372Z,3.60
2023-01-22T11:54:05.729Z,4.32
2023-01-22T11:56:59.801Z,3.80
2023-01-22T11:59:38.671Z,4.43
2023-01-22T12:02:24.339Z,3.80
2023-01-22T12:05:12.343Z,4.07
2023-01-22T12:08:13.034Z,3.75
2023-01-22T12:11:04.630Z,5.65
2023-01-22T12:14:10.691Z,3.28
2023-01-22T12:16:46.650Z,8.35
2023-01-22T12:19:32.658Z,8.15
2023-01-22T12:22:08.405Z,6.53
2023-01-22T12:24:42.761Z,3.17
2023-01-22T12:27:17.544Z,2.95
2023-01-22T12:29:52.964Z,3.50
2023-01-22T12:32:24.289Z,3.75
2023-01-22T12:34:59.263Z,3.35
2023-01-22T12:37:38.788Z,3.72
2023-01-22T12:40:27.778Z,4.38
2023-01-22T12:43:02.111Z,5.78
2023-01-22T12:45:41.781Z,6.30
2023-01-22T12:48:22.397Z,5.35
2023-01-22T12:50:54.356Z,6.57
2023-01-22T12:53:26.103Z,5.60
2023-01-22T12:56:03.907Z,6.28
2023-01-22T12:58:36.162Z,5.80
2023-01-22T13:01:08.514Z,4.85
2023-01-22T13:03:38.101Z,5.25
2023-01-22T13:06:22.648Z,5.60
2023-01-22T13:08:51.290Z,6.10
2023-01-22T13:11:31.420Z,5.35
2023-01-22T13:14:15.196Z,4.32
2023-01-22T13:16:53.729Z,4.70
2023-01-22T13:19:25.216Z,5.07
2023-01-22T13:21:58.017Z,6.13
2023-01-22T13:24:26.694Z,8.23
2023-01-22T13:27:00.127Z,7.88
2023-01-22T13:29:32.995Z,8.25
2023-01-22T13:32:03.936Z,8.57
2023-01-22T13:34:33.282Z,8.98
2023-01-22T13:37:03.300Z,8.00
2023-01-22T13:39:33.947Z,8.43
2023-01-22T13:42:05.113Z,7.40
2023-01-22T13:44:36.110Z,6.40
2023-01-22T13:47:05.241Z,6.05
2023-01-22T13:49:36.813Z,5.50
2023-01-22T13:52:15.289Z,6.45
2023-01-22T13:54:47.703Z,6.82
2023-01-22T13:57:23.567Z,8.15
2023-01-22T13:59:55.987Z,7.60
2023-01-22T14:02:25.954Z,8.00
2023-01-22T14:07:30.109Z,6.97
2023-01-22T14:10:11.680Z,8.60
2023-01-22T14:12:40.315Z,8.52
2023-01-22T14:15:16.447Z,8.52
2023-01-22T14:17:45.415Z,7.63
2023-01-22T14:20:14.623Z,9.65
2023-01-22T14:22:44.756Z,13.00
2023-01-22T14:25:13.568Z,8.80
2023-01-22T14:27:44.399Z,9.02
2023-01-22T14:30:15.819Z,8.82
2023-01-22T14:32:45.322Z,9.98
2023-01-22T14:35:18.170Z,15.35
2023-01-22T14:37:48.600Z,14.93
2023-01-22T14:40:19.088Z,10.35
2023-01-22T14:42:48.022Z,10.20
2023-01-22T14:45:18.267Z,10.77
2023-01-22T14:47:51.115Z,9.27
2023-01-22T14:50:20.865Z,9.35
2023-01-22T14:52:52.247Z,11.27
2023-01-22T14:55:21.239Z,10.60
2023-01-22T14:57:49.776Z,9.83
2023-01-22T15:00:20.398Z,9.85
2023-01-22T15:02:49.142Z,8.35
2023-01-22T15:05:18.053Z,8.90
2023-01-22T15:07:46.572Z,9.77
2023-01-22T15:10:17.028Z,10.95
2023-01-22T15:12:48.774Z,9.15
2023-01-22T15:15:18.868Z,9.63
2023-01-22T15:17:47.495Z,10.35
2023-01-22T15:20:16.414Z,9.35
2023-01-22T15:22:45.581Z,9.10
2023-01-22T15:25:15.635Z,7.78
2023-01-22T15:27:44.713Z,7.00
2023-01-22T15:30:14.404Z,9.15
2023-01-22T15:32:43.135Z,7.80
2023-01-22T15:35:12.524Z,7.80
2023-01-22T15:37:41.105Z,7.72
2023-01-22T15:40:11.082Z,7.13
2023-01-22T15:42:41.043Z,6.03
2023-01-22T15:45:10.563Z,8.90
2023-01-22T15:47:39.112Z,28.63
2023-01-22T15:50:08.551Z,15.75
2023-01-22T15:52:37.123Z,18.05
2023-01-22T15:55:06.571Z,17.23
2023-01-22T15:57:35.146Z,12.98
2023-01-22T16:00:06.332Z,11.00
2023-01-22T16:02:40.806Z,9.68
2023-01-22T16:05:10.065Z,8.90
2023-01-22T16:07:38.597Z,9.95
2023-01-22T16:10:07.768Z,10.10
2023-01-22T16:12:36.328Z,13.75
2023-01-22T16:15:07.317Z,11.75
2023-01-22T16:17:35.998Z,10.77
2023-01-22T16:20:05.479Z,8.88
2023-01-22T16:22:34.044Z,11.27
2023-01-22T16:25:02.656Z,8.88
2023-01-22T16:27:31.285Z,8.25
2023-01-22T16:30:00.774Z,6.88
2023-01-22T16:32:30.738Z,8.65
2023-01-22T16:34:59.335Z,10.00
2023-01-22T16:37:28.013Z,9.65
2023-01-22T16:39:56.527Z,10.57
2023-01-22T16:42:25.095Z,8.23
2023-01-22T16:44:53.646Z,8.25
2023-01-22T16:47:22.242Z,6.68
2023-01-22T16:49:52.223Z,5.05
2023-01-22T16:52:22.735Z,4.93
2023-01-22T16:54:52.165Z,5.78
2023-01-22T16:57:20.717Z,5.95
2023-01-22T16:59:49.396Z,5.88
2023-01-22T17:02:19.321Z,7.32
2023-01-22T17:04:48.397Z,7.43
2023-01-22T17:07:32.853Z,6.68
2023-01-22T17:10:03.038Z,8.77
2023-01-22T17:12:31.699Z,6.65
2023-01-22T17:15:00.764Z,6.77
2023-01-22T17:17:29.559Z,7.93
2023-01-22T17:19:58.215Z,8.10
2023-01-22T17:22:28.149Z,6.25
2023-01-22T17:24:57.008Z,7.22
2023-01-22T17:27:26.024Z,8.05
2023-01-22T17:29:54.932Z,9.23
2023-01-22T17:32:23.608Z,8.50
2023-01-22T17:34:52.500Z,8.30
2023-01-22T17:37:21.417Z,7.43
2023-01-22T17:39:52.735Z,7.80
2023-01-22T17:42:21.762Z,7.95
2023-01-22T17:44:53.882Z,6.90
2023-01-22T17:47:22.563Z,7.85
2023-01-22T17:49:52.000Z,6.85
2023-01-22T17:52:23.576Z,6.35
2023-01-22T17:54:54.521Z,8.35
2023-01-22T17:57:23.323Z,6.82
2023-01-22T17:59:52.846Z,8.70
2023-01-22T18:02:21.950Z,7.80
2023-01-22T18:04:52.137Z,5.27
2023-01-22T18:07:21.223Z,4.10
2023-01-22T18:09:52.380Z,5.65
2023-01-22T18:12:22.208Z,5.65
2023-01-22T18:17:19.293Z,6.22
2023-01-22T18:19:47.959Z,7.13
2023-01-22T18:22:16.686Z,6.47
2023-01-22T18:24:45.619Z,6.30
2023-01-22T18:27:16.667Z,6.15
2023-01-22T18:29:45.499Z,6.47
2023-01-22T18:32:14.005Z,6.38
2023-01-22T18:34:42.576Z,6.43
2023-01-22T18:37:12.085Z,8.02
2023-01-22T18:39:41.836Z,9.02
2023-01-22T18:44:42.764Z,9.67
2023-01-22T18:47:15.115Z,9.90
2023-01-22T18:49:44.157Z,11.15
2023-01-22T18:52:12.961Z,10.95
2023-01-22T18:54:41.633Z,9.87
2023-01-22T18:57:10.187Z,8.70
2023-01-22T18:59:38.886Z,7.85
2023-01-22T19:02:12.529Z,7.38
2023-01-22T19:04:41.158Z,8.80
2023-01-22T19:07:10.084Z,11.23
2023-01-22T19:09:40.122Z,9.77
2023-01-22T19:12:12.281Z,8.07
2023-01-22T19:14:41.891Z,9.30
2023-01-22T19:17:14.322Z,10.73
2023-01-22T19:19:43.137Z,15.45
2023-01-22T19:22:11.961Z,10.00
2023-01-22T19:24:43.726Z,9.15
2023-01-22T19:27:13.105Z,9.75
2023-01-22T19:29:43.571Z,7.53
2023-01-22T19:32:17.091Z,8.38
2023-01-22T19:34:46.446Z,8.98
2023-01-22T19:37:15.253Z,9.52
2023-01-22T19:39:44.161Z,10.25
2023-01-22T19:42:12.988Z,11.35
2023-01-22T19:44:43.035Z,11.05
2023-01-22T19:47:14.028Z,10.90
2023-01-22T19:49:43.440Z,9.82
2023-01-22T19:52:13.446Z,10.10
2023-01-22T19:54:47.444Z,11.20
2023-01-22T19:57:16.843Z,10.85
2023-01-22T19:59:48.085Z,8.85
2023-01-22T20:02:20.851Z,7.93
2023-01-22T20:04:49.574Z,6.68
2023-01-22T20:07:18.981Z,7.07
2023-01-22T20:09:47.943Z,6.78
2023-01-22T20:12:16.794Z,6.93
2023-01-22T20:14:45.634Z,7.73
2023-01-22T20:17:15.760Z,7.45
2023-01-22T20:19:45.851Z,8.77
2023-01-22T20:22:15.472Z,6.78
2023-01-22T20:27:12.982Z,7.55
2023-01-22T20:29:42.064Z,7.30
2023-01-22T20:32:10.754Z,6.72
2023-01-22T20:34:42.141Z,6.50
2023-01-22T20:37:12.722Z,6.90
2023-01-22T20:39:42.597Z,7.25
2023-01-22T20:44:39.662Z,6.40
2023-01-22T20:47:08.328Z,5.78
2023-01-22T20:49:37.250Z,6.93
2023-01-22T20:52:06.543Z,5.38
2023-01-22T20:54:45.921Z,6.32
2023-01-22T20:57:24.188Z,6.22
2023-01-22T20:59:54.550Z,5.90
2023-01-22T21:02:24.640Z,7.95
2023-01-22T21:04:56.887Z,7.32
2023-01-22T21:07:28.199Z,7.50
2023-01-22T21:09:59.824Z,8.15
2023-01-22T21:12:29.386Z,9.25
2023-01-22T21:14:58.476Z,10.52
2023-01-22T21:17:27.605Z,9.20
2023-01-22T21:19:56.616Z,9.65
2023-01-22T21:22:25.341Z,7.90
2023-01-22T21:24:53.880Z,7.70
2023-01-22T21:27:23.916Z,7.40
2023-01-22T21:29:52.666Z,13.48
2023-01-22T21:32:21.274Z,8.77
2023-01-22T21:34:49.881Z,10.93
2023-01-22T21:37:18.627Z,6.43
2023-01-22T21:39:47.225Z,4.78
2023-01-22T21:42:33.116Z,6.40
2023-01-22T21:45:20.794Z,7.13
2023-01-22T21:47:49.370Z,5.38
2023-01-22T21:50:18.388Z,5.50
2023-01-22T21:52:49.012Z,4.55
2023-01-22T21:55:17.933Z,5.07
2023-01-22T21:57:46.458Z,5.47
2023-01-22T22:00:19.714Z,5.22
2023-01-22T22:02:48.637Z,4.80
2023-01-22T22:05:17.245Z,4.47
2023-01-22T22:07:46.039Z,5.15
2023-01-22T22:10:15.272Z,4.68
2023-01-22T22:12:44.080Z,4.57
2023-01-22T22:15:12.808Z,5.40
2023-01-22T22:17:44.875Z,5.20
2023-01-22T22:20:14.013Z,5.45
2023-01-22T22:22:42.514Z,5.22
2023-01-22T22:25:11.544Z,5.72
2023-01-22T22:27:40.132Z,4.15
2023-01-22T22:30:10.260Z,6.30
2023-01-22T22:32:38.843Z,6.18
2023-01-22T22:35:10.339Z,6.53
2023-01-22T22:37:38.916Z,6.40
2023-01-22T22:40:08.842Z,4.38
2023-01-22T22:42:37.531Z,9.15
2023-01-22T22:45:07.048Z,14.70
2023-01-22T22:47:37.621Z,9.50
2023-01-22T22:50:09.110Z,11.30
2023-01-22T22:52:38.278Z,5.75
2023-01-22T22:55:08.128Z,5.25
2023-01-22T22:57:36.761Z,5.35
2023-01-22T23:00:11.998Z,5.90
2023-01-22T23:02:40.602Z,5.35
2023-01-22T23:05:11.207Z,5.28
2023-01-22T23:07:39.787Z,6.13
2023-01-22T23:10:28.764Z,6.97
2023-01-22T23:12:59.296Z,6.28
2023-01-22T23:15:30.179Z,6.75
2023-01-22T23:18:00.204Z,6.95
2023-01-22T23:20:30.663Z,8.20
2023-01-22T23:23:00.265Z,8.20
2023-01-22T23:25:28.959Z,8.98
2023-01-22T23:27:57.544Z,8.73
2023-01-22T23:30:27.055Z,8.63
2023-01-22T23:32:55.631Z,8.80
2023-01-22T23:35:24.154Z,8.02
2023-01-22T23:37:54.979Z,8.18
2023-01-22T23:40:23.791Z,7.20
2023-01-22T23:42:52.478Z,8.07
2023-01-22T23:45:21.099Z,6.75
2023-01-22T23:47:49.612Z,8.27
2023-01-22T23:50:18.629Z,7.32
2023-01-22T23:52:47.833Z,7.60
2023-01-22T23:55:17.895Z,8.18
2023-01-22T23:57:46.438Z,7.50
